EGCN/DSA METAR and TAF weather

Enter ICAO airport designator
Station Type Date Time Source
EGCN METAR 2019/08/19 01:20 UTC NOAA

EGCN 190120Z 21010KT CAVOK 12/11 Q1006


Station Type Date Time Source
EGCN Decoded METAR 2019/08/19 01:20 UTC NOAA

Station name not available
Aug 18, 2019 - 09:20 PM EDT / 2019.08.19 0120 UTC
Wind: from the SSW (210 degrees) at 12 MPH (10 KT):0
Visibility: greater than 7 mile(s):0
Temperature: 53 F (12 C)
Dew Point: 51 F (11 C)
Relative Humidity: 93%
Pressure (altimeter): 29.71 in. Hg (1006 hPa)
ob: EGCN 190120Z 21010KT CAVOK 12/11 Q1006
cycle: 1

Station Type Date Time Source
EGCN TAF 2019/08/18 18:00 UTC NOAA

TAF EGCN 181657Z 1818/1918 24015KT 9999 SCT025
TEMPO 1818/1821 26018G28KT
BECMG 1820/1823 20005KT
BECMG 1908/1911 25015KT PROB30
TEMPO 1909/1918 26018G28KT 6000 SHRA

Example: see airport list